Time;durP1;ratioP1;P1;durP2;ratioP2;P2;SDS_P1;SDS_P2;PMS_P1;PMS_P2;Temp;Humidity;BMP_temperature;BMP_pressure;BME280_temperature;BME280_humidity;BME280_pressure;Samples;Min_cycle;Max_cycle;Signal;HPM_P1;HPM_P2
2022/03/09 00:01:56;;;;;;;12.38;9.13;;;0.30;63.70;;;;;;5099516;28;20727;-79
2022/03/09 00:04:26;;;;;;;12.57;8.25;;;0.30;63.30;;;;;;5102138;28;20206;-79
2022/03/09 00:06:53;;;;;;;16.33;9.40;;;0.40;63.20;;;;;;5083061;28;20296;-78
2022/03/09 00:09:19;;;;;;;11.15;9.95;;;0.40;63.60;;;;;;5093761;28;20588;-79
2022/03/09 00:11:46;;;;;;;11.52;9.02;;;0.40;63.20;;;;;;5100368;28;20249;-79
2022/03/09 00:14:13;;;;;;;11.60;8.93;;;0.40;63.00;;;;;;5093998;28;20572;-78
2022/03/09 00:16:39;;;;;;;13.88;8.98;;;0.50;63.20;;;;;;5080849;28;20209;-78
2022/03/09 00:19:06;;;;;;;11.90;8.80;;;0.40;63.00;;;;;;5084477;28;20573;-79
2022/03/09 00:21:34;;;;;;;10.95;8.85;;;0.40;63.50;;;;;;5080558;28;20232;-79
2022/03/09 00:24:01;;;;;;;16.85;9.35;;;0.40;63.70;;;;;;5088712;28;20205;-78
2022/03/09 00:26:28;;;;;;;15.57;8.30;;;0.40;64.00;;;;;;5100923;28;20212;-79
2022/03/09 00:28:54;;;;;;;11.82;9.25;;;0.40;64.60;;;;;;5093910;28;20228;-79
2022/03/09 00:31:21;;;;;;;15.82;8.50;;;0.50;65.00;;;;;;5078647;28;20248;-78
2022/03/09 00:33:49;;;;;;;10.45;8.48;;;0.40;64.70;;;;;;5078088;28;20208;-78
2022/03/09 00:36:15;;;;;;;11.20;8.25;;;0.40;64.80;;;;;;5078522;28;20229;-78
2022/03/09 00:38:43;;;;;;;11.93;9.00;;;0.40;65.30;;;;;;5077853;28;20214;-78
2022/03/09 00:41:10;;;;;;;13.98;8.90;;;0.40;65.70;;;;;;5077650;28;20236;-78
2022/03/09 00:43:37;;;;;;;10.88;8.95;;;0.40;65.70;;;;;;5076965;28;20223;-78
2022/03/09 00:46:04;;;;;;;10.27;8.85;;;0.40;65.50;;;;;;5077457;28;20596;-78
2022/03/09 00:48:30;;;;;;;11.02;8.90;;;0.30;65.40;;;;;;5077909;28;20224;-78
2022/03/09 00:50:57;;;;;;;10.68;9.60;;;0.30;65.50;;;;;;5077478;28;20224;-78
2022/03/09 00:53:24;;;;;;;12.48;9.50;;;0.30;66.20;;;;;;5077470;28;20548;-78
2022/03/09 00:55:52;;;;;;;10.07;9.05;;;0.20;66.70;;;;;;5077793;28;20201;-78
2022/03/09 00:58:19;;;;;;;10.55;8.48;;;0.10;67.40;;;;;;5077397;28;20666;-78
2022/03/09 01:00:46;;;;;;;12.20;9.48;;;-0.10;68.00;;;;;;5076531;28;20217;-78
2022/03/09 01:03:12;;;;;;;10.38;8.98;;;0.00;68.30;;;;;;5077347;28;20236;-78
2022/03/09 01:05:39;;;;;;;10.50;8.60;;;0.00;67.90;;;;;;5077325;28;20205;-78
2022/03/09 01:08:06;;;;;;;10.98;9.45;;;0.00;67.70;;;;;;5076770;28;20205;-78
2022/03/09 01:10:33;;;;;;;9.38;8.02;;;0.00;67.40;;;;;;5076306;28;20221;-78
2022/03/09 01:13:01;;;;;;;10.48;8.85;;;0.00;67.50;;;;;;5076747;28;20695;-78
2022/03/09 01:15:28;;;;;;;8.95;8.05;;;0.10;68.10;;;;;;5077386;28;20208;-78
2022/03/09 01:17:55;;;;;;;8.23;7.35;;;0.00;68.10;;;;;;5077419;28;20205;-78
2022/03/09 01:20:21;;;;;;;8.65;7.82;;;0.00;68.00;;;;;;5076885;28;20224;-78
2022/03/09 01:22:48;;;;;;;9.50;7.45;;;0.00;68.00;;;;;;5076755;28;20248;-78
2022/03/09 01:25:15;;;;;;;8.15;7.05;;;0.00;68.80;;;;;;5077348;28;20209;-78
2022/03/09 01:27:42;;;;;;;10.40;7.00;;;0.00;67.80;;;;;;5077284;28;20205;-78
2022/03/09 01:30:10;;;;;;;11.52;9.35;;;0.00;68.00;;;;;;5081225;28;20242;-78
2022/03/09 01:32:37;;;;;;;9.43;7.72;;;0.00;68.30;;;;;;5096323;28;20693;-78
2022/03/09 01:35:05;;;;;;;12.48;8.55;;;-0.20;68.60;;;;;;5077009;28;20200;-78
2022/03/09 01:37:32;;;;;;;10.50;8.07;;;-0.20;69.00;;;;;;5076870;28;20212;-78
2022/03/09 01:39:59;;;;;;;10.30;7.93;;;-0.20;69.10;;;;;;5095856;28;20220;-78
2022/03/09 01:42:25;;;;;;;9.93;8.30;;;-0.20;69.30;;;;;;5095075;28;20224;-78
2022/03/09 01:44:52;;;;;;;14.52;7.95;;;-0.20;69.40;;;;;;5096863;28;20207;-78
2022/03/09 01:47:20;;;;;;;9.30;8.07;;;-0.40;69.70;;;;;;5089738;28;20201;-78
2022/03/09 01:49:48;;;;;;;15.43;9.10;;;-0.50;70.50;;;;;;5076644;28;20213;-78
2022/03/09 01:52:15;;;;;;;9.80;7.25;;;-0.70;72.00;;;;;;5086424;28;20287;-78
2022/03/09 01:54:42;;;;;;;11.02;8.07;;;-0.70;72.50;;;;;;5096985;28;20253;-78
2022/03/09 01:57:09;;;;;;;13.15;6.82;;;-0.70;73.00;;;;;;5090947;28;20220;-78
2022/03/09 01:59:36;;;;;;;7.85;7.15;;;-0.70;73.10;;;;;;5075941;28;20662;-78
2022/03/09 02:02:03;;;;;;;12.27;9.27;;;-0.60;73.00;;;;;;5076180;28;20209;-78
2022/03/09 02:04:31;;;;;;;10.45;7.93;;;-0.50;73.00;;;;;;5076958;28;20208;-78
2022/03/09 02:06:58;;;;;;;7.38;6.65;;;-0.50;73.20;;;;;;5086794;28;20203;-78
2022/03/09 02:09:43;;;;;;;13.55;8.45;;;-0.50;73.80;;;;;;5096586;28;20204;-78
2022/03/09 02:12:11;;;;;;;10.23;8.45;;;-0.40;73.90;;;;;;5080266;28;20247;-78
2022/03/09 02:14:40;;;;;;;8.45;7.05;;;-0.40;73.30;;;;;;5076626;28;20200;-78
2022/03/09 02:17:10;;;;;;;9.20;7.65;;;-0.40;73.60;;;;;;5076799;28;20239;-78
2022/03/09 02:19:40;;;;;;;14.07;7.93;;;-0.40;73.40;;;;;;5076429;28;20192;-78
2022/03/09 02:22:11;;;;;;;7.55;6.65;;;-0.40;73.60;;;;;;5076310;28;20201;-78
2022/03/09 02:24:40;;;;;;;9.57;8.02;;;-0.50;73.80;;;;;;5076443;28;20558;-78
2022/03/09 02:27:07;;;;;;;10.32;7.13;;;-0.60;74.80;;;;;;5090728;28;20207;-78
2022/03/09 02:29:34;;;;;;;10.35;7.80;;;-0.60;74.90;;;;;;5096945;28;20204;-78
2022/03/09 02:32:01;;;;;;;9.05;8.05;;;-0.50;74.90;;;;;;5083024;28;20602;-78
2022/03/09 02:34:28;;;;;;;13.00;9.23;;;-0.50;74.60;;;;;;5079776;28;20200;-78
2022/03/09 02:36:55;;;;;;;11.93;8.00;;;-0.40;74.40;;;;;;5102647;28;20203;-78
2022/03/09 02:39:21;;;;;;;7.47;6.75;;;-0.40;74.40;;;;;;5103134;28;20294;-78
2022/03/09 02:41:50;;;;;;;8.45;7.65;;;-0.40;74.20;;;;;;5103013;28;20749;-78
2022/03/09 02:44:16;;;;;;;9.38;8.40;;;-0.40;74.30;;;;;;5103475;28;20631;-78
2022/03/09 02:46:43;;;;;;;8.45;7.03;;;-0.60;74.80;;;;;;5083532;28;20207;-78
2022/03/09 02:49:10;;;;;;;9.02;7.07;;;-0.60;75.40;;;;;;5083121;28;20208;-78
2022/03/09 02:51:37;;;;;;;9.05;6.82;;;-0.60;75.40;;;;;;5100236;28;20239;-78
2022/03/09 02:54:04;;;;;;;8.68;6.40;;;-0.60;75.10;;;;;;5103744;28;20200;-78
2022/03/09 02:56:31;;;;;;;7.57;6.55;;;-0.50;75.30;;;;;;5087022;28;20806;-78
2022/03/09 02:58:59;;;;;;;9.77;7.22;;;-0.50;75.30;;;;;;5083983;28;20204;-78
2022/03/09 03:01:26;;;;;;;8.95;6.50;;;-0.50;75.50;;;;;;5097679;28;20220;-78
2022/03/09 03:03:53;;;;;;;7.03;6.03;;;-0.50;75.50;;;;;;5102871;28;20230;-78
2022/03/09 03:06:20;;;;;;;9.25;7.68;;;-0.60;75.70;;;;;;5088302;28;20214;-78
2022/03/09 03:08:46;;;;;;;11.63;6.57;;;-1.00;76.50;;;;;;5085184;28;20209;-78
2022/03/09 03:11:13;;;;;;;6.35;5.80;;;-1.50;77.50;;;;;;5102781;28;20716;-78
2022/03/09 03:13:41;;;;;;;8.38;6.53;;;-1.50;78.80;;;;;;5101699;28;20207;-78
2022/03/09 03:16:10;;;;;;;10.20;7.70;;;-1.40;78.90;;;;;;5082315;28;20201;-79
2022/03/09 03:18:37;;;;;;;6.75;6.15;;;-1.30;78.90;;;;;;5083118;28;20257;-79
2022/03/09 03:21:05;;;;;;;6.95;6.25;;;-1.20;78.70;;;;;;5062382;28;20248;-79
2022/03/09 03:23:33;;;;;;;8.90;6.28;;;-1.20;78.60;;;;;;5062754;28;20291;-79
2022/03/09 03:26:01;;;;;;;8.90;6.82;;;-1.10;78.70;;;;;;5101650;28;20204;-79
2022/03/09 03:28:28;;;;;;;6.80;5.70;;;-1.10;78.60;;;;;;5102866;28;20204;-79
2022/03/09 03:30:55;;;;;;;9.75;6.22;;;-1.00;78.60;;;;;;5087716;28;20225;-79
2022/03/09 03:33:23;;;;;;;7.90;5.90;;;-1.00;78.50;;;;;;5091429;28;20201;-79
2022/03/09 03:35:51;;;;;;;12.00;6.93;;;-1.30;79.20;;;;;;5090536;28;20212;-79
2022/03/09 03:38:18;;;;;;;8.95;8.10;;;-1.30;80.00;;;;;;5090917;28;20204;-79
2022/03/09 03:40:45;;;;;;;8.80;6.43;;;-1.20;79.80;;;;;;5090718;28;20239;-79
2022/03/09 03:43:13;;;;;;;7.55;5.38;;;-1.10;79.70;;;;;;5091227;28;20224;-79
2022/03/09 03:45:40;;;;;;;10.52;6.63;;;-1.10;79.60;;;;;;5088493;28;20213;-79
2022/03/09 03:48:07;;;;;;;9.45;8.57;;;-1.10;79.80;;;;;;5088395;28;20209;-79
2022/03/09 03:50:36;;;;;;;11.73;6.05;;;-1.10;80.00;;;;;;5087022;28;20220;-80
2022/03/09 03:53:03;;;;;;;7.25;6.15;;;-1.50;81.00;;;;;;5088592;28;20213;-79
2022/03/09 03:55:30;;;;;;;7.07;6.07;;;-1.60;82.20;;;;;;5087389;28;20217;-79
2022/03/09 03:57:56;;;;;;;6.95;5.45;;;-1.60;82.60;;;;;;5088166;28;20201;-79
2022/03/09 04:00:23;;;;;;;8.00;7.00;;;-1.50;82.70;;;;;;5086398;28;20224;-78
2022/03/09 04:02:51;;;;;;;7.47;5.65;;;-1.50;82.40;;;;;;5086758;28;20235;-79
2022/03/09 04:05:17;;;;;;;7.57;6.20;;;-1.50;82.30;;;;;;5085902;28;20201;-78
2022/03/09 04:07:46;;;;;;;5.55;5.05;;;-1.70;83.00;;;;;;5086529;28;20658;-79
2022/03/09 04:10:12;;;;;;;7.68;5.63;;;-1.80;84.30;;;;;;5084509;28;20221;-79
2022/03/09 04:12:39;;;;;;;8.98;5.90;;;-1.60;84.50;;;;;;5086074;28;20209;-79
2022/03/09 04:15:07;;;;;;;6.68;5.90;;;-1.50;84.20;;;;;;5084783;28;20197;-79
2022/03/09 04:17:43;;;;;;;10.88;7.03;;;-1.50;83.40;;;;;;5085387;28;20216;-79
2022/03/09 04:20:11;;;;;;;7.97;5.00;;;-1.40;83.00;;;;;;5087065;28;20237;-79
2022/03/09 04:22:37;;;;;;;8.60;6.60;;;-1.40;82.90;;;;;;5088721;28;20205;-78
2022/03/09 04:25:07;;;;;;;7.97;7.15;;;-1.30;83.20;;;;;;5087143;28;20239;-80
2022/03/09 04:27:34;;;;;;;9.38;6.35;;;-1.30;83.20;;;;;;5088043;28;20209;-79
2022/03/09 04:30:01;;;;;;;8.93;6.63;;;-1.30;83.10;;;;;;5090139;28;20228;-79
2022/03/09 04:32:28;;;;;;;9.52;7.70;;;-1.30;83.00;;;;;;5107236;28;20209;-79
2022/03/09 04:34:54;;;;;;;6.63;5.30;;;-1.30;83.00;;;;;;5093840;28;20207;-80
2022/03/09 04:37:21;;;;;;;9.57;6.55;;;-1.30;83.00;;;;;;5087476;28;20464;-79
2022/03/09 04:39:48;;;;;;;6.78;5.60;;;-1.30;83.00;;;;;;5099452;28;20284;-79
2022/03/09 04:42:16;;;;;;;6.13;5.50;;;-1.30;83.00;;;;;;5108338;28;20211;-79
2022/03/09 04:44:44;;;;;;;6.65;5.70;;;-1.30;83.00;;;;;;5102727;28;20217;-79
2022/03/09 04:47:10;;;;;;;8.02;6.15;;;-1.20;83.20;;;;;;5108426;28;20643;-79
2022/03/09 04:49:37;;;;;;;7.57;6.85;;;-1.20;83.30;;;;;;5096843;28;20201;-79
2022/03/09 04:52:05;;;;;;;11.23;7.15;;;-1.20;83.30;;;;;;5086400;28;20215;-79
2022/03/09 04:54:32;;;;;;;7.18;6.28;;;-1.20;83.20;;;;;;5105270;28;20196;-80
2022/03/09 04:56:58;;;;;;;6.05;5.22;;;-1.20;83.10;;;;;;5106493;28;20216;-79
2022/03/09 04:59:26;;;;;;;6.80;5.85;;;-1.20;83.00;;;;;;5088948;28;20205;-79
2022/03/09 05:01:53;;;;;;;8.65;6.97;;;-1.20;83.20;;;;;;5087358;28;20225;-79
2022/03/09 05:04:20;;;;;;;10.30;6.40;;;-1.20;83.00;;;;;;5095048;28;20232;-79
2022/03/09 05:06:47;;;;;;;7.38;6.60;;;-1.20;83.20;;;;;;5088998;28;20198;-79
2022/03/09 05:09:13;;;;;;;10.38;7.03;;;-1.20;83.20;;;;;;5088160;28;20213;-79
2022/03/09 05:11:40;;;;;;;6.88;6.15;;;-1.20;83.20;;;;;;5082953;28;20293;-79
2022/03/09 05:14:07;;;;;;;11.70;7.25;;;-1.20;83.20;;;;;;5096608;28;20192;-79
2022/03/09 05:16:35;;;;;;;12.48;8.57;;;-1.20;83.40;;;;;;5107240;28;20205;-79
2022/03/09 05:19:02;;;;;;;8.63;6.28;;;-1.20;83.30;;;;;;5094290;28;20197;-79
2022/03/09 05:21:29;;;;;;;9.18;6.30;;;-1.20;83.40;;;;;;5087846;28;20232;-79
2022/03/09 05:23:56;;;;;;;10.32;7.43;;;-1.30;83.50;;;;;;5087391;28;20583;-79
2022/03/09 05:26:22;;;;;;;8.13;6.00;;;-1.30;84.00;;;;;;5086931;28;20201;-79
2022/03/09 05:28:50;;;;;;;12.18;6.40;;;-1.30;84.30;;;;;;5086992;28;20292;-79
2022/03/09 05:31:18;;;;;;;8.25;6.55;;;-1.30;84.60;;;;;;5086907;28;20295;-79
2022/03/09 05:33:46;;;;;;;9.00;6.18;;;-1.40;84.70;;;;;;5086218;28;20220;-79
2022/03/09 05:36:13;;;;;;;8.55;6.85;;;-1.40;84.80;;;;;;5086011;28;20201;-79
2022/03/09 05:38:39;;;;;;;12.88;7.53;;;-1.40;84.60;;;;;;5086305;28;20205;-79
2022/03/09 05:41:06;;;;;;;9.10;7.07;;;-1.40;84.80;;;;;;5087461;28;20239;-80
2022/03/09 05:43:34;;;;;;;9.20;7.50;;;-1.40;85.00;;;;;;5087111;28;20239;-79
2022/03/09 05:46:01;;;;;;;8.25;7.40;;;-1.40;85.50;;;;;;5087312;28;20201;-80
2022/03/09 05:48:28;;;;;;;8.40;7.57;;;-1.40;85.50;;;;;;5085994;28;20288;-80
2022/03/09 05:50:56;;;;;;;7.22;6.50;;;-1.40;85.50;;;;;;5086418;28;20220;-80
2022/03/09 05:53:22;;;;;;;7.60;6.90;;;-1.40;85.60;;;;;;5087572;28;20204;-80
2022/03/09 05:55:49;;;;;;;13.18;8.38;;;-1.40;85.80;;;;;;5086913;28;20825;-80
2022/03/09 05:58:16;;;;;;;9.77;7.95;;;-1.40;85.70;;;;;;5087182;28;20205;-80
2022/03/09 06:00:43;;;;;;;10.20;8.15;;;-1.40;85.80;;;;;;5086792;28;20229;-80
2022/03/09 06:03:09;;;;;;;10.55;7.35;;;-1.40;85.80;;;;;;5086639;28;20204;-80
2022/03/09 06:05:36;;;;;;;14.50;7.70;;;-1.40;85.80;;;;;;5086779;28;20221;-80
2022/03/09 06:08:04;;;;;;;7.60;6.90;;;-1.40;85.80;;;;;;5086387;28;20208;-80
2022/03/09 06:10:32;;;;;;;8.18;7.10;;;-1.30;86.00;;;;;;5086057;28;20240;-80
2022/03/09 06:12:59;;;;;;;8.20;7.13;;;-1.30;85.80;;;;;;5086163;28;20213;-80
2022/03/09 06:15:26;;;;;;;8.38;7.57;;;-1.30;85.70;;;;;;5086799;28;20193;-80
2022/03/09 06:17:53;;;;;;;8.40;7.45;;;-1.30;85.70;;;;;;5086687;28;20200;-80
2022/03/09 06:20:22;;;;;;;7.13;6.35;;;-1.30;85.50;;;;;;5086295;28;20217;-80
2022/03/09 06:22:50;;;;;;;8.32;6.40;;;-1.20;85.50;;;;;;5087159;28;20205;-80
2022/03/09 06:25:18;;;;;;;9.15;5.85;;;-1.20;85.40;;;;;;5086890;28;20220;-80
2022/03/09 06:27:46;;;;;;;7.65;6.93;;;-1.20;85.20;;;;;;5085582;28;20209;-80
2022/03/09 06:30:14;;;;;;;7.90;7.20;;;-1.20;84.90;;;;;;5087679;28;20243;-80
2022/03/09 06:32:42;;;;;;;9.30;6.82;;;-1.10;84.80;;;;;;5086421;28;20209;-80
2022/03/09 06:35:10;;;;;;;9.50;7.93;;;-1.20;84.70;;;;;;5087396;28;20197;-80
2022/03/09 06:37:37;;;;;;;11.00;7.20;;;-1.10;85.10;;;;;;5100863;28;20289;-80
2022/03/09 06:40:05;;;;;;;10.50;7.15;;;-1.10;84.90;;;;;;5083065;28;20224;-80
2022/03/09 06:42:34;;;;;;;8.32;6.30;;;-1.00;84.80;;;;;;5080230;28;20208;-80
2022/03/09 06:45:01;;;;;;;8.90;8.10;;;-1.00;85.00;;;;;;5094489;28;20562;-80
2022/03/09 06:47:28;;;;;;;16.42;7.20;;;-0.90;85.20;;;;;;5086654;28;20207;-80
2022/03/09 06:49:55;;;;;;;9.60;7.30;;;-0.80;85.10;;;;;;5094448;28;20216;-79
2022/03/09 06:52:21;;;;;;;10.27;7.88;;;-0.70;84.90;;;;;;5088549;28;20568;-80
2022/03/09 06:54:48;;;;;;;13.90;8.50;;;-0.60;84.70;;;;;;5080867;28;20197;-80
2022/03/09 06:57:15;;;;;;;9.10;7.45;;;-0.50;84.00;;;;;;5081613;28;20594;-80
2022/03/09 06:59:44;;;;;;;12.23;9.18;;;-0.40;83.80;;;;;;5083405;28;20573;-80
2022/03/09 07:02:11;;;;;;;22.25;8.63;;;-0.40;83.40;;;;;;5097800;28;20234;-79
2022/03/09 07:04:38;;;;;;;16.08;8.88;;;-0.30;84.50;;;;;;5094439;28;20239;-79
2022/03/09 07:07:05;;;;;;;7.60;6.90;;;-0.30;90.10;;;;;;5068708;28;20200;-79
2022/03/09 07:09:32;;;;;;;10.90;7.75;;;-0.30;92.20;;;;;;5067691;28;20202;-78
2022/03/09 07:11:58;;;;;;;11.05;8.13;;;-0.10;93.90;;;;;;5062595;28;20223;-79
2022/03/09 07:14:25;;;;;;;15.30;8.52;;;0.10;93.50;;;;;;5069406;28;20195;-78
2022/03/09 07:16:53;;;;;;;9.70;8.70;;;0.30;90.00;;;;;;5065476;28;20205;-79
2022/03/09 07:19:20;;;;;;;11.10;7.45;;;0.50;85.10;;;;;;5069341;28;20225;-79
2022/03/09 07:21:47;;;;;;;10.40;8.00;;;0.60;83.20;;;;;;5067633;28;20698;-78
2022/03/09 07:24:14;;;;;;;12.18;8.40;;;0.70;82.20;;;;;;5070515;28;20255;-78
2022/03/09 07:26:42;;;;;;;15.10;8.80;;;0.80;81.60;;;;;;5067487;28;20204;-79
2022/03/09 07:29:09;;;;;;;11.90;8.63;;;0.90;80.70;;;;;;5068243;28;20295;-79
2022/03/09 07:31:36;;;;;;;11.15;8.55;;;0.90;79.60;;;;;;5076221;28;20336;-78
2022/03/09 07:34:04;;;;;;;13.80;7.53;;;1.00;79.20;;;;;;5078410;28;20564;-79
2022/03/09 07:36:31;;;;;;;11.95;7.90;;;1.10;78.60;;;;;;5078014;28;20202;-78
2022/03/09 07:38:58;;;;;;;10.18;7.80;;;1.10;77.90;;;;;;5075406;28;20201;-78
2022/03/09 07:41:24;;;;;;;11.13;8.93;;;1.20;77.70;;;;;;5079666;28;20241;-79
2022/03/09 07:43:51;;;;;;;13.45;8.57;;;1.20;77.90;;;;;;5078383;28;20225;-79
2022/03/09 07:46:18;;;;;;;12.60;9.38;;;1.40;78.20;;;;;;5078304;28;20208;-79
2022/03/09 07:48:45;;;;;;;10.20;8.95;;;1.40;78.00;;;;;;5078827;28;20196;-79
2022/03/09 07:51:13;;;;;;;12.85;8.48;;;1.60;78.70;;;;;;5078196;28;20221;-80
2022/03/09 07:53:42;;;;;;;12.90;9.07;;;1.70;79.20;;;;;;5078221;28;20667;-79
2022/03/09 07:56:10;;;;;;;14.32;9.13;;;1.80;79.20;;;;;;5078662;28;20202;-79
2022/03/09 07:58:37;;;;;;;16.23;10.23;;;1.90;78.00;;;;;;5079065;28;20202;-79
2022/03/09 08:01:04;;;;;;;9.40;8.40;;;2.00;77.10;;;;;;5087304;28;20723;-80
2022/03/09 08:03:31;;;;;;;9.25;8.35;;;2.20;76.00;;;;;;5087054;28;20555;-79
2022/03/09 08:05:58;;;;;;;14.00;8.60;;;2.20;75.80;;;;;;5088395;28;20294;-79
2022/03/09 08:08:26;;;;;;;10.10;7.43;;;2.30;75.50;;;;;;5088134;28;20214;-80
2022/03/09 08:10:52;;;;;;;14.48;8.80;;;2.50;74.50;;;;;;5087704;28;20223;-79
2022/03/09 08:13:19;;;;;;;14.10;8.52;;;2.60;73.60;;;;;;5088664;28;20204;-79
2022/03/09 08:15:46;;;;;;;9.77;8.52;;;2.70;73.20;;;;;;5088429;28;20204;-80
2022/03/09 08:18:13;;;;;;;9.77;8.05;;;2.80;72.60;;;;;;5088019;28;20208;-79
2022/03/09 08:20:39;;;;;;;10.73;8.68;;;2.90;71.80;;;;;;5087702;28;20242;-79
2022/03/09 08:23:08;;;;;;;9.80;8.75;;;3.00;72.10;;;;;;5088414;28;20211;-79
2022/03/09 08:25:36;;;;;;;14.52;7.90;;;3.10;71.40;;;;;;5087729;28;20235;-80
2022/03/09 08:28:03;;;;;;;12.68;10.55;;;3.20;71.10;;;;;;5087105;28;20214;-79
2022/03/09 08:30:30;;;;;;;11.98;8.43;;;3.40;71.50;;;;;;5086983;28;20611;-80
2022/03/09 08:32:58;;;;;;;12.18;8.02;;;3.40;71.40;;;;;;5087326;28;20235;-79
2022/03/09 08:35:25;;;;;;;10.27;9.05;;;3.50;70.70;;;;;;5087553;28;20204;-80
2022/03/09 08:37:52;;;;;;;16.00;8.93;;;3.40;68.80;;;;;;5087237;28;20209;-80
2022/03/09 08:40:18;;;;;;;9.35;8.07;;;3.40;68.30;;;;;;5087197;28;20225;-80
2022/03/09 08:42:47;;;;;;;11.63;8.60;;;3.50;68.90;;;;;;5083767;28;20666;-79
2022/03/09 08:45:14;;;;;;;16.40;8.38;;;3.60;68.30;;;;;;5084155;28;20224;-79
2022/03/09 08:47:41;;;;;;;11.13;7.97;;;3.60;68.20;;;;;;5085402;28;20204;-79
2022/03/09 08:50:09;;;;;;;11.13;8.20;;;3.60;67.80;;;;;;5078647;28;20236;-79
2022/03/09 08:52:36;;;;;;;15.20;11.15;;;3.70;67.80;;;;;;5079031;28;20209;-79
2022/03/09 08:55:03;;;;;;;12.25;10.07;;;3.80;68.10;;;;;;5078466;28;20696;-79
2022/03/09 08:57:29;;;;;;;11.95;9.13;;;3.80;67.60;;;;;;5086192;28;20282;-79
2022/03/09 09:00:01;;;;;;;9.52;8.18;;;3.80;68.20;;;;;;5092435;28;20235;-79
2022/03/09 09:02:28;;;;;;;10.35;8.55;;;4.00;68.30;;;;;;5089574;28;20232;-80
2022/03/09 09:04:55;;;;;;;11.57;8.95;;;4.10;67.50;;;;;;5086824;28;20724;-80
2022/03/09 09:07:22;;;;;;;9.85;8.57;;;4.10;67.40;;;;;;5090410;28;20201;-79
2022/03/09 09:09:49;;;;;;;12.70;9.02;;;4.20;67.30;;;;;;5091842;28;20287;-80
2022/03/09 09:12:16;;;;;;;13.52;10.40;;;4.30;67.90;;;;;;5092137;28;20238;-79
2022/03/09 09:14:42;;;;;;;12.68;9.40;;;4.40;68.60;;;;;;5079136;28;20219;-79
2022/03/09 09:17:10;;;;;;;11.95;8.52;;;4.40;66.50;;;;;;5077678;28;20212;-79
2022/03/09 09:19:37;;;;;;;9.57;8.52;;;4.60;66.00;;;;;;5079480;28;20227;-80
2022/03/09 09:22:04;;;;;;;10.60;9.38;;;4.60;65.60;;;;;;5087300;28;20212;-80
2022/03/09 09:24:31;;;;;;;9.13;7.70;;;4.70;65.30;;;;;;5079266;28;20216;-80
2022/03/09 09:26:58;;;;;;;12.98;9.43;;;4.90;64.60;;;;;;5083861;28;20204;-80
2022/03/09 09:29:25;;;;;;;10.80;7.65;;;5.00;63.50;;;;;;5092151;28;20216;-80
2022/03/09 09:31:52;;;;;;;10.75;9.75;;;5.10;64.00;;;;;;5091302;28;20244;-80
2022/03/09 09:34:20;;;;;;;9.88;7.75;;;5.20;62.20;;;;;;5092040;28;20212;-80
2022/03/09 09:36:47;;;;;;;8.93;8.10;;;5.30;60.60;;;;;;5091508;28;20219;-80
2022/03/09 09:39:14;;;;;;;11.10;9.20;;;5.30;59.40;;;;;;5091403;28;20213;-80
2022/03/09 09:41:44;;;;;;;10.90;8.52;;;5.50;58.90;;;;;;5079650;28;20251;-79
2022/03/09 09:44:12;;;;;;;11.38;8.13;;;5.70;58.50;;;;;;5084713;28;20213;-79
2022/03/09 09:46:40;;;;;;;8.82;7.97;;;5.80;57.90;;;;;;5082667;28;20236;-80
2022/03/09 09:49:07;;;;;;;10.40;8.95;;;5.90;57.40;;;;;;5078010;28;20622;-81
2022/03/09 09:51:37;;;;;;;9.88;8.00;;;5.90;57.80;;;;;;5078182;28;20243;-81
2022/03/09 09:54:05;;;;;;;10.55;8.80;;;6.10;57.20;;;;;;5079031;28;20213;-80
2022/03/09 09:56:36;;;;;;;11.93;8.25;;;6.30;56.70;;;;;;5077684;28;20205;-79
2022/03/09 09:59:03;;;;;;;9.32;8.43;;;6.40;56.40;;;;;;5080290;28;20208;-79
2022/03/09 10:01:30;;;;;;;8.65;7.15;;;6.50;55.10;;;;;;5077910;28;20221;-81
2022/03/09 10:03:57;;;;;;;10.80;9.50;;;6.70;55.10;;;;;;5078040;28;20201;-80
2022/03/09 10:06:24;;;;;;;10.65;9.05;;;6.80;54.00;;;;;;5086669;28;20243;-79
2022/03/09 10:09:05;;;;;;;10.13;8.40;;;6.80;53.50;;;;;;5081981;28;20693;-80
2022/03/09 10:11:46;;;;;;;10.32;7.72;;;6.90;53.70;;;;;;5077548;28;20225;-79
2022/03/09 10:14:13;;;;;;;11.95;9.10;;;6.90;53.10;;;;;;5087005;28;20207;-80
2022/03/09 10:17:00;;;;;;;9.40;7.70;;;7.00;53.40;;;;;;5088287;28;20200;-80
2022/03/09 10:19:31;;;;;;;12.95;9.30;;;7.20;52.80;;;;;;5085186;28;20231;-80
2022/03/09 10:21:58;;;;;;;10.80;9.52;;;7.50;52.60;;;;;;5085532;28;20240;-80
2022/03/09 10:24:35;;;;;;;11.02;8.40;;;7.80;52.30;;;;;;5085262;28;20205;-80
2022/03/09 10:27:02;;;;;;;10.45;8.70;;;7.90;51.70;;;;;;5085463;28;20602;-80
2022/03/09 10:29:29;;;;;;;12.82;9.00;;;7.90;51.90;;;;;;5088666;28;20578;-80
2022/03/09 10:31:59;;;;;;;12.90;9.65;;;8.20;52.80;;;;;;5083317;28;20240;-80
2022/03/09 10:34:29;;;;;;;12.00;10.60;;;8.60;51.50;;;;;;5078518;28;20205;-81
2022/03/09 10:36:57;;;;;;;16.00;10.80;;;8.80;50.00;;;;;;5077783;28;20235;-81
2022/03/09 10:39:26;;;;;;;12.87;11.40;;;9.10;50.30;;;;;;5084623;28;20214;-80
2022/03/09 10:41:54;;;;;;;12.37;9.60;;;9.40;48.60;;;;;;5083865;28;20475;-80
2022/03/09 10:44:40;;;;;;;9.90;8.90;;;9.60;47.10;;;;;;5076676;28;20953;-79
2022/03/09 10:47:07;;;;;;;16.93;10.77;;;9.70;47.30;;;;;;5076729;28;20509;-79
2022/03/09 10:49:34;;;;;;;14.97;10.63;;;9.90;46.10;;;;;;5076977;28;20975;-80
2022/03/09 10:52:01;;;;;;;11.67;9.47;;;9.90;45.70;;;;;;5087478;28;20460;-80
2022/03/09 10:54:32;;;;;;;12.40;10.33;;;10.10;46.20;;;;;;5088191;28;20420;-80
2022/03/09 10:57:06;;;;;;;11.27;9.63;;;10.40;46.10;;;;;;5093408;28;20415;-80
2022/03/09 10:59:46;;;;;;;14.57;11.57;;;10.40;44.90;;;;;;5094530;28;20447;-80
2022/03/09 11:02:13;;;;;;;11.00;9.83;;;10.70;45.90;;;;;;5081192;28;20952;-80
2022/03/09 11:04:41;;;;;;;12.83;10.40;;;10.90;46.60;;;;;;5081011;28;20452;-81
2022/03/09 11:07:09;;;;;;;15.60;11.10;;;11.10;46.20;;;;;;5080993;28;20624;-82
2022/03/09 11:09:36;;;;;;;12.53;11.03;;;11.40;46.60;;;;;;5082442;28;20432;-82
2022/03/09 11:12:06;;;;;;;11.47;10.30;;;11.90;45.10;;;;;;5081518;28;20455;-82
2022/03/09 11:14:34;;;;;;;18.57;11.00;;;12.50;43.70;;;;;;5087200;28;20437;-81
2022/03/09 11:17:01;;;;;;;13.47;11.60;;;13.30;44.00;;;;;;5089897;28;20439;-81
2022/03/09 11:19:28;;;;;;;14.53;11.60;;;14.10;43.40;;;;;;5094117;28;20443;-81
2022/03/09 11:21:55;;;;;;;13.30;11.90;;;15.00;42.20;;;;;;5090402;28;20503;-79
2022/03/09 11:24:22;;;;;;;12.60;11.30;;;15.40;39.10;;;;;;5085133;28;20467;-78
2022/03/09 11:26:51;;;;;;;13.87;11.60;;;15.80;38.60;;;;;;5081460;28;20986;-79
2022/03/09 11:29:30;;;;;;;13.60;12.30;;;16.60;36.60;;;;;;5081300;28;20447;-79
2022/03/09 11:31:57;;;;;;;15.90;12.30;;;16.90;35.40;;;;;;5083029;28;20516;-79
2022/03/09 11:34:35;;;;;;;11.87;10.70;;;17.40;35.60;;;;;;5092036;28;20456;-80
2022/03/09 11:37:04;;;;;;;15.73;12.13;;;17.70;34.70;;;;;;5083378;28;20455;-81
2022/03/09 11:39:32;;;;;;;13.70;12.40;;;18.60;35.40;;;;;;5079924;28;20450;-81
2022/03/09 11:42:31;;;;;;;14.60;13.20;;;17.50;31.30;;;;;;5080663;28;20491;-80
2022/03/09 11:45:40;;;;;;;15.03;13.43;;;17.70;34.20;;;;;;5080365;28;20994;-80
2022/03/09 11:48:11;;;;;;;15.37;12.70;;;18.50;34.20;;;;;;5081141;28;20417;-80
2022/03/09 11:51:12;;;;;;;15.77;12.77;;;19.50;33.30;;;;;;5081901;28;20850;-78
2022/03/09 11:53:48;;;;;;;14.30;12.90;;;20.10;31.90;;;;;;5085107;28;20454;-79
2022/03/09 11:56:35;;;;;;;17.23;14.00;;;20.80;30.80;;;;;;5080266;28;20427;-80
2022/03/09 11:59:27;;;;;;;14.10;12.10;;;20.70;30.10;;;;;;5081545;28;20971;-79
2022/03/09 12:02:24;;;;;;;15.00;13.23;;;21.40;30.70;;;;;;5061956;28;20542;-79
2022/03/09 12:04:53;;;;;;;14.90;13.47;;;22.20;30.00;;;;;;5081344;28;20840;-80
2022/03/09 12:07:46;;;;;;;17.30;14.80;;;22.80;29.10;;;;;;5079710;28;20490;-81
2022/03/09 12:10:13;;;;;;;15.40;14.00;;;23.10;28.30;;;;;;5088842;28;20480;-79
2022/03/09 12:13:10;;;;;;;15.07;13.60;;;23.60;28.40;;;;;;5087845;28;20544;-79
2022/03/09 12:16:15;;;;;;;13.70;12.40;;;24.10;27.60;;;;;;5088430;28;20468;-79
2022/03/09 12:18:44;;;;;;;14.77;13.30;;;23.80;27.10;;;;;;5091162;28;20442;-79
2022/03/09 12:21:14;;;;;;;15.73;13.47;;;23.80;26.30;;;;;;5082131;28;20471;-78
2022/03/09 12:24:36;;;;;;;15.53;13.83;;;23.90;26.00;;;;;;5079763;28;20469;-78
2022/03/09 12:27:21;;;;;;;14.40;12.90;;;23.60;25.90;;;;;;5079773;28;20482;-79
2022/03/09 12:29:48;;;;;;;15.03;13.70;;;24.20;26.00;;;;;;5079762;28;20458;-79
2022/03/09 12:32:17;;;;;;;13.17;11.87;;;24.30;25.00;;;;;;5079475;28;20446;-79
2022/03/09 12:34:46;;;;;;;14.87;13.50;;;24.30;24.60;;;;;;5079634;28;20470;-79
2022/03/09 12:37:16;;;;;;;15.70;14.10;;;23.60;25.20;;;;;;5083727;28;20446;-80
2022/03/09 12:39:52;;;;;;;14.67;13.27;;;24.10;25.30;;;;;;5085207;28;20441;-80
2022/03/09 12:42:20;;;;;;;15.10;13.50;;;23.70;24.20;;;;;;5089968;28;20448;-79
2022/03/09 12:44:47;;;;;;;15.80;13.90;;;23.30;24.30;;;;;;5083094;28;20480;-80
2022/03/09 12:47:15;;;;;;;15.07;13.43;;;23.30;25.10;;;;;;5083719;28;20485;-79
2022/03/09 12:49:44;;;;;;;15.77;14.23;;;23.40;24.50;;;;;;5084955;28;20447;-80
2022/03/09 12:52:14;;;;;;;14.17;12.87;;;23.40;24.70;;;;;;5084729;28;20457;-80